createdAt,value
2018-02-06T00:00:49.524Z,-1.31
2018-02-06T00:03:23.228Z,-1.35
2018-02-06T00:05:56.844Z,-1.46
2018-02-06T00:08:30.520Z,-1.43
2018-02-06T00:11:04.262Z,-1.39
2018-02-06T00:13:38.029Z,-1.50
2018-02-06T00:16:11.629Z,-1.56
2018-02-06T00:18:45.360Z,-1.69
2018-02-06T00:21:18.980Z,-1.52
2018-02-06T00:23:52.502Z,-1.46
2018-02-06T00:26:26.229Z,-1.41
2018-02-06T00:28:59.877Z,-1.49
2018-02-06T00:31:33.429Z,-1.49
2018-02-06T00:34:07.144Z,-1.49
2018-02-06T00:36:40.833Z,-1.47
2018-02-06T00:39:14.579Z,-1.40
2018-02-06T00:41:48.270Z,-1.39
2018-02-06T00:44:21.933Z,-1.54
2018-02-06T00:46:55.652Z,-1.67
2018-02-06T00:49:29.334Z,-1.85
2018-02-06T00:52:03.210Z,-1.76
2018-02-06T00:54:36.711Z,-1.60
2018-02-06T00:57:10.426Z,-1.61
2018-02-06T00:59:44.612Z,-1.61
2018-02-06T01:02:19.392Z,-1.63
2018-02-06T01:04:53.469Z,-1.68
2018-02-06T01:07:26.980Z,-1.74
2018-02-06T01:10:01.389Z,-1.84
2018-02-06T01:12:35.577Z,-1.87
2018-02-06T01:15:09.937Z,-1.76
2018-02-06T01:17:43.798Z,-1.79
2018-02-06T01:20:17.361Z,-1.78
2018-02-06T01:22:51.153Z,-1.75
2018-02-06T01:25:24.774Z,-1.71
2018-02-06T01:27:58.644Z,-1.71
2018-02-06T01:30:32.410Z,-1.74
2018-02-06T01:33:06.251Z,-1.78
2018-02-06T01:35:39.845Z,-1.86
2018-02-06T01:38:13.461Z,-2.07
2018-02-06T01:40:47.259Z,-2.04
2018-02-06T01:43:21.267Z,-2.12
2018-02-06T01:45:55.504Z,-2.06
2018-02-06T01:48:29.877Z,-2.16
2018-02-06T01:51:03.913Z,-2.17
2018-02-06T01:53:37.546Z,-2.21
2018-02-06T01:56:11.140Z,-2.26
2018-02-06T01:58:45.153Z,-2.12
2018-02-06T02:01:19.369Z,-2.05
2018-02-06T02:03:53.116Z,-2.10
2018-02-06T02:06:26.594Z,-2.13
2018-02-06T02:09:00.513Z,-2.09
2018-02-06T02:11:34.244Z,-2.01
2018-02-06T02:14:08.030Z,-2.01
2018-02-06T02:16:41.549Z,-2.03
2018-02-06T02:19:15.274Z,-2.04
2018-02-06T02:21:48.805Z,-2.07
2018-02-06T02:24:22.497Z,-2.13
2018-02-06T02:26:56.148Z,-2.08
2018-02-06T02:29:30.065Z,-2.07
2018-02-06T02:32:03.739Z,-1.99
2018-02-06T02:34:37.480Z,-2.00
2018-02-06T02:37:11.121Z,-2.04
2018-02-06T02:39:44.954Z,-2.06
2018-02-06T04:40:12.330Z,-1.83
2018-02-06T04:42:46.126Z,-1.89
2018-02-06T04:45:19.960Z,-1.90
2018-02-06T04:47:53.486Z,-1.78
2018-02-06T04:50:29.591Z,-1.41
2018-02-06T04:53:04.030Z,-1.32
2018-02-06T04:55:38.124Z,-1.60
2018-02-06T04:58:12.189Z,-1.56
2018-02-06T05:00:45.946Z,-1.61
2018-02-06T05:03:19.748Z,-1.63
2018-02-06T05:05:53.462Z,-1.65
2018-02-06T05:08:27.206Z,-1.64
2018-02-06T05:11:00.983Z,-1.79
2018-02-06T05:13:34.648Z,-1.84
2018-02-06T05:16:08.393Z,-1.90
2018-02-06T05:18:42.203Z,-1.95
2018-02-06T05:21:15.770Z,-1.97
2018-02-06T05:23:49.488Z,-1.93
2018-02-06T05:26:23.005Z,-1.98
2018-02-06T05:28:56.500Z,-1.94
2018-02-06T05:31:30.374Z,-1.76
2018-02-06T05:34:04.346Z,-1.82
2018-02-06T05:36:38.056Z,-1.68
2018-02-06T05:39:11.521Z,-1.71
2018-02-06T05:41:45.250Z,-1.60
2018-02-06T05:44:18.908Z,-1.70
2018-02-06T05:46:53.251Z,-1.89
2018-02-06T05:49:26.967Z,-1.79
2018-02-06T05:52:00.531Z,-1.87
2018-02-06T05:54:34.225Z,-1.63
2018-02-06T05:57:07.943Z,-1.72
2018-02-06T05:59:41.729Z,-1.71
2018-02-06T06:02:15.308Z,-1.80
2018-02-06T06:04:48.986Z,-1.76
2018-02-06T06:07:22.734Z,-1.78
2018-02-06T06:09:56.413Z,-1.78
2018-02-06T06:12:30.817Z,-1.62
2018-02-06T06:15:04.465Z,-1.64
2018-02-06T06:17:38.177Z,-1.61
2018-02-06T06:20:11.803Z,-1.67
2018-02-06T06:22:45.448Z,-1.83
2018-02-06T06:25:19.176Z,-1.82
2018-02-06T06:27:52.845Z,-1.75
2018-02-06T06:30:26.398Z,-1.67
2018-02-06T06:33:00.103Z,-1.64
2018-02-06T06:35:33.848Z,-1.43
2018-02-06T06:38:07.599Z,-1.54
2018-02-06T06:40:41.297Z,-1.62
2018-02-06T06:43:15.021Z,-1.48
2018-02-06T06:45:48.550Z,-1.50
2018-02-06T06:48:22.443Z,-1.52
2018-02-06T06:50:56.205Z,-1.45
2018-02-06T06:53:29.874Z,-1.62
2018-02-06T06:56:03.365Z,-1.44
2018-02-06T06:58:37.050Z,-1.29
2018-02-06T07:01:10.707Z,-1.62
2018-02-06T07:03:44.526Z,-1.63
2018-02-06T07:06:18.138Z,-1.72
2018-02-06T07:08:51.777Z,-1.65
2018-02-06T07:11:25.488Z,-1.35
2018-02-06T07:13:59.155Z,-1.29
2018-02-06T07:16:32.977Z,-1.35
2018-02-06T07:19:06.917Z,-1.28
2018-02-06T07:21:40.604Z,-1.44
2018-02-06T07:24:14.284Z,-1.47
2018-02-06T07:26:48.058Z,-1.60
2018-02-06T07:29:21.743Z,-1.50
2018-02-06T07:31:55.520Z,-1.65
2018-02-06T07:34:29.396Z,-1.57
2018-02-06T07:37:02.960Z,-1.54
2018-02-06T07:39:37.299Z,-1.56
2018-02-06T07:42:11.957Z,-1.44
2018-02-06T07:44:46.311Z,-1.38
2018-02-06T07:47:20.033Z,-1.38
2018-02-06T07:49:53.709Z,-1.34
2018-02-06T07:52:27.478Z,-1.32
2018-02-06T07:55:01.272Z,-1.21
2018-02-06T07:57:34.884Z,-1.05
2018-02-06T08:00:08.475Z,-1.05
2018-02-06T08:02:42.256Z,-1.09
2018-02-06T08:05:15.981Z,-1.03
2018-02-06T08:07:49.594Z,-1.11
2018-02-06T08:10:23.298Z,-1.08
2018-02-06T08:12:56.999Z,-1.14
2018-02-06T08:15:30.597Z,-1.14
2018-02-06T08:18:04.273Z,-1.18
2018-02-06T08:20:37.957Z,-1.21
2018-02-06T08:23:11.719Z,-1.27
2018-02-06T08:25:45.224Z,-1.12
2018-02-06T08:28:19.010Z,-0.77
2018-02-06T08:30:52.669Z,-0.74
2018-02-06T08:33:26.341Z,-0.84
2018-02-06T08:36:00.133Z,-0.66
2018-02-06T08:38:33.977Z,-0.71
2018-02-06T08:41:07.787Z,-0.71
2018-02-06T08:43:41.427Z,-0.61
2018-02-06T08:46:15.109Z,-0.66
2018-02-06T08:48:48.751Z,-0.44
2018-02-06T08:51:22.325Z,-0.45
2018-02-06T08:53:56.280Z,-0.49
2018-02-06T08:56:29.841Z,-0.40
2018-02-06T08:59:03.677Z,-0.57
2018-02-06T09:01:37.232Z,-0.26
2018-02-06T09:04:10.914Z,-0.39
2018-02-06T09:06:44.548Z,-0.62
2018-02-06T09:09:18.099Z,-0.36
2018-02-06T09:11:51.785Z,-0.40
2018-02-06T09:14:25.507Z,-0.47
2018-02-06T09:16:59.070Z,-0.32
2018-02-06T09:19:32.751Z,-0.21
2018-02-06T09:22:06.268Z,-0.17
2018-02-06T09:24:39.957Z,-0.65
2018-02-06T09:27:13.658Z,-0.81
2018-02-06T09:29:47.378Z,-0.30
2018-02-06T09:32:20.897Z,-0.47
2018-02-06T09:34:54.626Z,-0.00
2018-02-06T09:37:28.296Z,-0.06
2018-02-06T09:40:01.991Z,0.07
2018-02-06T09:42:35.756Z,0.24
2018-02-06T09:45:09.678Z,0.06
2018-02-06T09:47:43.149Z,-0.01
2018-02-06T09:50:16.723Z,0.18
2018-02-06T09:52:50.610Z,0.40
2018-02-06T09:55:24.332Z,0.28
2018-02-06T09:57:57.836Z,0.24
2018-02-06T10:00:31.768Z,0.07
2018-02-06T10:03:05.622Z,0.31
2018-02-06T10:05:39.301Z,0.21
2018-02-06T10:08:12.957Z,0.46
2018-02-06T10:10:46.685Z,0.88
2018-02-06T10:13:20.449Z,0.53
2018-02-06T10:15:54.229Z,0.28
2018-02-06T10:18:27.895Z,0.58
2018-02-06T10:21:01.653Z,0.61
2018-02-06T10:23:35.353Z,0.53
2018-02-06T10:26:09.219Z,0.88
2018-02-06T10:28:43.013Z,0.78
2018-02-06T10:31:16.775Z,0.93
2018-02-06T10:33:50.478Z,0.96
2018-02-06T10:36:24.312Z,0.67
2018-02-06T10:38:57.983Z,0.81
2018-02-06T10:41:31.481Z,0.93
2018-02-06T10:44:05.039Z,1.01
2018-02-06T10:46:38.978Z,1.18
2018-02-06T10:49:12.450Z,1.17
2018-02-06T10:51:46.195Z,1.49
2018-02-06T10:54:19.954Z,1.55
2018-02-06T10:56:53.796Z,1.58
2018-02-06T10:59:28.196Z,2.08
2018-02-06T11:02:01.750Z,1.46
2018-02-06T11:04:35.437Z,1.97
2018-02-06T11:07:09.313Z,1.82
2018-02-06T11:09:42.949Z,1.97
2018-02-06T11:12:16.664Z,2.31
2018-02-06T11:14:50.301Z,1.73
2018-02-06T11:17:24.982Z,1.99
2018-02-06T11:19:58.630Z,2.06
2018-02-06T11:22:32.123Z,2.02
2018-02-06T11:25:05.705Z,1.83
2018-02-06T11:27:39.445Z,1.29
2018-02-06T11:30:13.189Z,1.34
2018-02-06T11:32:46.937Z,1.06
2018-02-06T11:35:20.814Z,1.14
2018-02-06T11:37:54.399Z,0.89
2018-02-06T11:40:28.608Z,1.16
2018-02-06T11:43:02.572Z,1.31
2018-02-06T11:45:36.361Z,1.47
2018-02-06T11:48:09.931Z,1.23
2018-02-06T11:50:43.472Z,1.36
2018-02-06T11:53:17.313Z,1.11
2018-02-06T11:55:50.968Z,1.29
2018-02-06T11:58:24.605Z,1.39
2018-02-06T12:00:58.128Z,1.38
2018-02-06T12:03:32.028Z,1.14
2018-02-06T12:06:05.564Z,1.22
2018-02-06T12:08:39.277Z,1.37
2018-02-06T12:11:13.067Z,1.31
2018-02-06T12:13:46.865Z,1.38
2018-02-06T12:16:20.508Z,1.65
2018-02-06T12:18:54.221Z,1.42
2018-02-06T12:21:27.964Z,1.40
2018-02-06T12:24:02.414Z,1.34
2018-02-06T12:26:36.147Z,1.23
2018-02-06T12:29:10.530Z,1.23
2018-02-06T12:31:44.624Z,1.42
2018-02-06T12:34:18.461Z,1.36
2018-02-06T12:36:51.986Z,1.38
2018-02-06T12:39:25.651Z,1.53
2018-02-06T12:41:59.443Z,1.28
2018-02-06T12:44:33.093Z,1.31
2018-02-06T12:47:06.756Z,1.22
2018-02-06T12:49:40.596Z,1.13
2018-02-06T12:52:14.174Z,1.43
2018-02-06T12:54:48.016Z,1.33
2018-02-06T12:57:21.739Z,1.18
2018-02-06T12:59:55.572Z,1.04
2018-02-06T13:02:29.131Z,1.17
2018-02-06T13:05:02.751Z,1.13
2018-02-06T13:07:36.381Z,1.23
2018-02-06T13:10:10.208Z,1.29
2018-02-06T13:12:43.806Z,1.22
2018-02-06T13:15:17.745Z,0.89
2018-02-06T13:17:51.477Z,1.12
2018-02-06T13:20:25.216Z,1.08
2018-02-06T13:22:59.164Z,0.92
2018-02-06T13:25:32.840Z,0.84
2018-02-06T13:28:06.480Z,1.25
2018-02-06T13:30:40.216Z,1.22
2018-02-06T13:33:13.968Z,1.16
2018-02-06T13:35:47.871Z,1.21
2018-02-06T13:38:21.521Z,1.22
2018-02-06T13:40:55.256Z,1.29
2018-02-06T13:43:28.956Z,1.20
2018-02-06T13:46:02.527Z,1.23
2018-02-06T13:48:36.089Z,1.29
2018-02-06T13:51:09.703Z,1.22
2018-02-06T13:53:43.314Z,1.31
2018-02-06T13:56:17.100Z,1.32
2018-02-06T13:58:50.760Z,1.03
2018-02-06T14:01:24.432Z,0.74
2018-02-06T14:03:58.012Z,0.96
2018-02-06T14:06:31.900Z,1.13
2018-02-06T14:09:05.637Z,1.21
2018-02-06T14:11:39.430Z,1.34
2018-02-06T14:14:12.864Z,1.21
2018-02-06T14:16:46.724Z,1.18
2018-02-06T14:19:20.389Z,1.18
2018-02-06T14:21:54.143Z,1.11
2018-02-06T14:24:28.672Z,1.12
2018-02-06T14:27:02.687Z,1.45
2018-02-06T14:29:36.497Z,1.35
2018-02-06T14:32:11.112Z,1.25
2018-02-06T14:34:45.088Z,1.27
2018-02-06T14:37:20.531Z,0.76
2018-02-06T14:39:54.566Z,0.64
2018-02-06T14:42:28.189Z,1.34
2018-02-06T14:45:01.873Z,1.16
2018-02-06T14:47:35.589Z,1.17
2018-02-06T14:50:09.425Z,0.96
2018-02-06T14:52:43.134Z,0.66
2018-02-06T14:55:16.856Z,0.61
2018-02-06T14:57:50.577Z,0.86
2018-02-06T15:00:24.272Z,0.89
2018-02-06T15:02:57.966Z,0.89
2018-02-06T15:05:31.648Z,1.57
2018-02-06T15:08:05.405Z,1.49
2018-02-06T15:10:39.149Z,1.16
2018-02-06T15:13:12.856Z,1.03
2018-02-06T15:15:46.429Z,0.90
2018-02-06T15:18:20.074Z,0.75
2018-02-06T15:20:53.784Z,0.66
2018-02-06T15:23:27.833Z,0.66
2018-02-06T15:26:01.528Z,0.50
2018-02-06T15:28:35.195Z,0.71
2018-02-06T15:31:08.841Z,0.69
2018-02-06T15:33:42.581Z,0.55
2018-02-06T15:36:16.226Z,0.39
2018-02-06T15:38:50.121Z,0.27
2018-02-06T15:41:23.589Z,0.17
2018-02-06T15:43:57.274Z,0.12
2018-02-06T15:46:30.914Z,0.17
2018-02-06T15:49:04.660Z,0.29
2018-02-06T15:51:38.488Z,0.04
2018-02-06T15:54:12.253Z,-0.00
2018-02-06T15:56:45.912Z,0.13
2018-02-06T15:59:19.490Z,0.22
2018-02-06T16:01:53.181Z,0.23
2018-02-06T16:04:26.767Z,0.02
2018-02-06T16:07:00.412Z,0.01
2018-02-06T16:09:34.123Z,-0.02
2018-02-06T16:12:07.810Z,-0.07
2018-02-06T16:14:41.514Z,-0.01
2018-02-06T16:17:15.021Z,0.28
2018-02-06T16:19:48.757Z,0.10
2018-02-06T16:22:22.473Z,-0.10
2018-02-06T16:24:56.147Z,0.19
2018-02-06T16:27:29.773Z,0.01
2018-02-06T16:30:03.769Z,-0.08
2018-02-06T16:32:37.268Z,0.01
2018-02-06T16:35:11.106Z,-0.06
2018-02-06T16:37:44.831Z,-0.21
2018-02-06T16:40:18.590Z,-0.31
2018-02-06T16:42:52.108Z,-0.39
2018-02-06T16:45:25.807Z,-0.37
2018-02-06T16:47:59.650Z,-0.40
2018-02-06T16:50:33.424Z,-0.39
2018-02-06T16:53:07.180Z,-0.36
2018-02-06T16:55:40.936Z,-0.36
2018-02-06T16:58:14.487Z,-0.41
2018-02-06T17:00:48.335Z,-0.43
2018-02-06T17:03:22.077Z,-0.40
2018-02-06T17:05:56.695Z,-0.49
2018-02-06T17:08:30.581Z,-0.47
2018-02-06T17:11:04.332Z,-0.50
2018-02-06T17:13:38.021Z,-0.49
2018-02-06T17:16:11.611Z,-0.52
2018-02-06T17:18:45.067Z,-0.56
2018-02-06T17:21:18.826Z,-0.55
2018-02-06T17:23:52.517Z,-0.61
2018-02-06T17:26:26.240Z,-0.69
2018-02-06T17:28:59.828Z,-0.67
2018-02-06T17:31:33.403Z,-0.72
2018-02-06T17:34:07.334Z,-0.71
2018-02-06T17:36:41.125Z,-0.66
2018-02-06T17:39:14.850Z,-0.74
2018-02-06T17:41:48.414Z,-0.72
2018-02-06T17:44:22.077Z,-0.82
2018-02-06T17:46:55.781Z,-0.75
2018-02-06T17:49:29.654Z,-0.69
2018-02-06T17:52:03.553Z,-0.79
2018-02-06T17:54:37.128Z,-0.82
2018-02-06T17:57:11.138Z,-0.81
2018-02-06T17:59:44.715Z,-0.93
2018-02-06T18:02:18.340Z,-0.94
2018-02-06T18:04:51.921Z,-0.90
2018-02-06T18:07:25.449Z,-0.96
2018-02-06T18:09:59.333Z,-0.75
2018-02-06T18:12:33.170Z,-0.80
2018-02-06T18:15:06.918Z,-0.94
2018-02-06T18:17:41.025Z,-0.98
2018-02-06T18:20:15.288Z,-1.00
2018-02-06T18:22:49.287Z,-1.09
2018-02-06T18:25:23.594Z,-1.15
2018-02-06T18:27:57.279Z,-1.06
2018-02-06T18:30:31.173Z,-1.03
2018-02-06T18:33:04.828Z,-1.12
2018-02-06T18:35:38.529Z,-1.17
2018-02-06T18:38:12.157Z,-1.28
2018-02-06T18:40:45.818Z,-1.23
2018-02-06T18:43:19.798Z,-1.20
2018-02-06T18:45:53.467Z,-1.27
2018-02-06T18:48:27.365Z,-1.04
2018-02-06T18:51:01.102Z,-1.20
2018-02-06T18:53:34.773Z,-1.29
2018-02-06T18:56:08.615Z,-1.27
2018-02-06T18:58:42.397Z,-1.29
2018-02-06T19:01:16.031Z,-1.29
2018-02-06T19:03:50.505Z,-1.49
2018-02-06T19:06:24.729Z,-1.44
2018-02-06T19:08:58.297Z,-1.42
2018-02-06T19:11:32.049Z,-1.43
2018-02-06T19:14:05.674Z,-1.55
2018-02-06T19:16:39.409Z,-1.49
2018-02-06T19:19:13.310Z,-1.50
2018-02-06T19:21:46.861Z,-1.50
2018-02-06T19:24:20.914Z,-1.55
2018-02-06T19:26:54.425Z,-1.52
2018-02-06T19:29:28.229Z,-1.59
2018-02-06T19:32:01.872Z,-1.71
2018-02-06T19:34:35.442Z,-1.71
2018-02-06T19:37:09.235Z,-1.69
2018-02-06T19:39:43.082Z,-1.75
2018-02-06T19:42:16.892Z,-1.76
2018-02-06T19:44:50.486Z,-1.68
2018-02-06T19:47:24.569Z,-1.80
2018-02-06T19:49:58.017Z,-1.75
2018-02-06T19:52:32.032Z,-1.73
2018-02-06T19:55:05.548Z,-1.74
2018-02-06T19:57:39.380Z,-1.87
2018-02-06T20:00:13.146Z,-1.77
2018-02-06T20:02:46.795Z,-1.80
2018-02-06T20:05:20.424Z,-1.86
2018-02-06T20:07:54.116Z,-1.83
2018-02-06T20:10:28.425Z,-1.92
2018-02-06T20:13:02.599Z,-2.05
2018-02-06T20:15:36.328Z,-2.05
2018-02-06T20:18:10.050Z,-2.13
2018-02-06T20:20:44.286Z,-2.09
2018-02-06T20:23:18.567Z,-1.97
2018-02-06T20:25:52.189Z,-2.05
2018-02-06T20:28:26.172Z,-2.08
2018-02-06T20:30:59.798Z,-2.12
2018-02-06T20:33:33.597Z,-2.14
2018-02-06T20:36:07.393Z,-2.22
2018-02-06T20:38:41.029Z,-2.15
2018-02-06T20:41:14.820Z,-2.14
2018-02-06T20:43:48.636Z,-2.22
2018-02-06T20:46:22.381Z,-2.34
2018-02-06T20:48:55.961Z,-2.37
2018-02-06T20:51:29.858Z,-2.35
2018-02-06T20:54:03.874Z,-2.37
2018-02-06T20:56:37.413Z,-2.35
2018-02-06T20:59:11.064Z,-2.31
2018-02-06T21:01:45.270Z,-2.36
2018-02-06T21:04:19.438Z,-2.06
2018-02-06T21:06:53.379Z,-2.45
2018-02-06T21:09:27.197Z,-2.64
2018-02-06T21:12:00.916Z,-2.61
2018-02-06T21:14:34.661Z,-2.63
2018-02-06T21:17:08.542Z,-2.71
2018-02-06T21:19:42.154Z,-2.74
2018-02-06T21:22:15.832Z,-2.77
2018-02-06T21:24:49.619Z,-2.75
2018-02-06T21:27:23.701Z,-2.68
2018-02-06T21:29:57.166Z,-2.71
2018-02-06T21:32:30.777Z,-2.79
2018-02-06T21:35:05.080Z,-2.86
2018-02-06T21:37:39.322Z,-2.87
2018-02-06T21:40:13.133Z,-2.82
2018-02-06T21:42:46.629Z,-2.90
2018-02-06T21:45:20.539Z,-2.83
2018-02-06T21:47:54.225Z,-2.80
2018-02-06T21:50:28.156Z,-2.78
2018-02-06T21:53:01.675Z,-2.79
2018-02-06T21:55:35.332Z,-2.88
2018-02-06T21:58:09.076Z,-2.83
2018-02-06T22:00:43.068Z,-2.95
2018-02-06T22:03:16.513Z,-2.93
2018-02-06T22:05:51.001Z,-2.91
2018-02-06T22:08:25.034Z,-2.97
2018-02-06T22:10:58.509Z,-2.91
2018-02-06T22:13:32.321Z,-2.86
2018-02-06T22:16:05.748Z,-2.90
2018-02-06T22:18:39.721Z,-2.98
2018-02-06T22:21:13.629Z,-2.91
2018-02-06T22:23:47.324Z,-3.08
2018-02-06T22:26:21.144Z,-3.09
2018-02-06T22:28:54.824Z,-3.10
2018-02-06T22:31:28.447Z,-3.12
2018-02-06T22:34:02.356Z,-3.12
2018-02-06T22:36:36.155Z,-3.16
2018-02-06T22:39:11.115Z,-3.22
2018-02-06T22:41:44.977Z,-3.19
2018-02-06T22:44:18.882Z,-3.07
2018-02-06T22:46:52.530Z,-3.10
2018-02-06T22:49:26.516Z,-3.06
2018-02-06T22:51:59.957Z,-2.95
2018-02-06T22:54:33.932Z,-2.95
2018-02-06T22:57:07.530Z,-2.96
2018-02-06T22:59:41.436Z,-3.02
2018-02-06T23:02:15.233Z,-2.98
2018-02-06T23:04:49.014Z,-2.89
2018-02-06T23:07:22.942Z,-2.82
2018-02-06T23:09:56.604Z,-2.84
2018-02-06T23:12:30.459Z,-2.92
2018-02-06T23:15:04.485Z,-2.96
2018-02-06T23:17:38.105Z,-3.00
2018-02-06T23:20:12.092Z,-3.01
2018-02-06T23:22:45.996Z,-2.95
2018-02-06T23:25:19.585Z,-3.00
2018-02-06T23:27:53.209Z,-2.84
2018-02-06T23:30:27.089Z,-2.93
2018-02-06T23:33:00.819Z,-3.12
2018-02-06T23:35:34.735Z,-3.18
2018-02-06T23:38:08.621Z,-3.22
2018-02-06T23:40:42.561Z,-3.12
2018-02-06T23:43:16.112Z,-3.07
2018-02-06T23:45:49.928Z,-3.15
2018-02-06T23:48:23.830Z,-3.13
2018-02-06T23:50:58.286Z,-3.22
2018-02-06T23:53:32.453Z,-3.17
2018-02-06T23:56:06.678Z,-3.19
2018-02-06T23:58:40.848Z,-3.31
